sensor_id;sensor_type;location;lat;lon;timestamp;P1;durP1;ratioP1;P2;durP2;ratioP2
67146;SDS011;70072;52.036;5.558;2024-02-21T00:01:49;3.13;;;1.35;;
67146;SDS011;70072;52.036;5.558;2024-02-21T00:04:17;5.72;;;1.48;;
67146;SDS011;70072;52.036;5.558;2024-02-21T00:06:43;2.97;;;1.40;;
67146;SDS011;70072;52.036;5.558;2024-02-21T00:09:09;4.10;;;1.38;;
67146;SDS011;70072;52.036;5.558;2024-02-21T00:11:34;2.63;;;1.38;;
67146;SDS011;70072;52.036;5.558;2024-02-21T00:14:02;2.75;;;1.30;;
67146;SDS011;70072;52.036;5.558;2024-02-21T00:16:28;7.03;;;1.25;;
67146;SDS011;70072;52.036;5.558;2024-02-21T00:18:53;1.98;;;0.95;;
67146;SDS011;70072;52.036;5.558;2024-02-21T00:21:21;4.32;;;1.35;;
67146;SDS011;70072;52.036;5.558;2024-02-21T00:23:47;5.25;;;1.20;;
67146;SDS011;70072;52.036;5.558;2024-02-21T00:26:15;3.28;;;1.27;;
67146;SDS011;70072;52.036;5.558;2024-02-21T00:28:41;3.10;;;1.48;;
67146;SDS011;70072;52.036;5.558;2024-02-21T00:31:10;3.97;;;1.17;;
67146;SDS011;70072;52.036;5.558;2024-02-21T00:33:35;3.17;;;1.20;;
67146;SDS011;70072;52.036;5.558;2024-02-21T00:36:05;2.33;;;1.20;;
67146;SDS011;70072;52.036;5.558;2024-02-21T00:41:03;3.60;;;1.45;;
67146;SDS011;70072;52.036;5.558;2024-02-21T00:43:29;4.40;;;1.40;;
67146;SDS011;70072;52.036;5.558;2024-02-21T00:45:57;2.78;;;1.17;;
67146;SDS011;70072;52.036;5.558;2024-02-21T00:48:23;2.78;;;1.27;;
67146;SDS011;70072;52.036;5.558;2024-02-21T00:50:48;6.97;;;1.30;;
67146;SDS011;70072;52.036;5.558;2024-02-21T00:53:14;2.10;;;0.98;;
67146;SDS011;70072;52.036;5.558;2024-02-21T00:55:40;2.25;;;1.00;;
67146;SDS011;70072;52.036;5.558;2024-02-21T00:58:06;3.35;;;1.02;;
67146;SDS011;70072;52.036;5.558;2024-02-21T01:00:34;3.08;;;1.17;;
67146;SDS011;70072;52.036;5.558;2024-02-21T01:03:02;3.25;;;1.27;;
67146;SDS011;70072;52.036;5.558;2024-02-21T01:05:28;2.53;;;0.90;;
67146;SDS011;70072;52.036;5.558;2024-02-21T01:07:54;4.05;;;1.10;;
67146;SDS011;70072;52.036;5.558;2024-02-21T01:10:19;4.22;;;1.02;;
67146;SDS011;70072;52.036;5.558;2024-02-21T01:12:48;1.65;;;1.10;;
67146;SDS011;70072;52.036;5.558;2024-02-21T01:15:16;3.42;;;1.23;;
67146;SDS011;70072;52.036;5.558;2024-02-21T01:17:44;4.38;;;1.20;;
67146;SDS011;70072;52.036;5.558;2024-02-21T01:20:09;2.85;;;1.48;;
67146;SDS011;70072;52.036;5.558;2024-02-21T01:22:37;3.22;;;1.02;;
67146;SDS011;70072;52.036;5.558;2024-02-21T01:25:03;1.85;;;1.10;;
67146;SDS011;70072;52.036;5.558;2024-02-21T01:27:29;1.63;;;0.82;;
67146;SDS011;70072;52.036;5.558;2024-02-21T01:29:55;2.25;;;1.00;;
67146;SDS011;70072;52.036;5.558;2024-02-21T01:32:21;2.17;;;0.90;;
67146;SDS011;70072;52.036;5.558;2024-02-21T01:34:49;2.13;;;0.98;;
67146;SDS011;70072;52.036;5.558;2024-02-21T01:37:15;4.43;;;1.25;;
67146;SDS011;70072;52.036;5.558;2024-02-21T01:39:41;2.20;;;0.90;;
67146;SDS011;70072;52.036;5.558;2024-02-21T01:42:06;2.13;;;0.93;;
67146;SDS011;70072;52.036;5.558;2024-02-21T01:44:33;2.70;;;0.95;;
67146;SDS011;70072;52.036;5.558;2024-02-21T01:46:59;1.77;;;1.10;;
67146;SDS011;70072;52.036;5.558;2024-02-21T01:49:25;3.03;;;1.30;;
67146;SDS011;70072;52.036;5.558;2024-02-21T01:51:51;1.00;;;0.73;;
67146;SDS011;70072;52.036;5.558;2024-02-21T01:54:18;3.33;;;1.20;;
67146;SDS011;70072;52.036;5.558;2024-02-21T01:56:46;3.78;;;0.93;;
67146;SDS011;70072;52.036;5.558;2024-02-21T01:59:12;1.27;;;0.80;;
67146;SDS011;70072;52.036;5.558;2024-02-21T02:01:42;3.00;;;1.17;;
67146;SDS011;70072;52.036;5.558;2024-02-21T02:04:13;1.47;;;0.83;;
67146;SDS011;70072;52.036;5.558;2024-02-21T02:06:39;3.10;;;1.00;;
67146;SDS011;70072;52.036;5.558;2024-02-21T02:09:06;7.53;;;1.10;;
67146;SDS011;70072;52.036;5.558;2024-02-21T02:11:32;1.35;;;0.80;;
67146;SDS011;70072;52.036;5.558;2024-02-21T02:13:58;2.60;;;0.93;;
67146;SDS011;70072;52.036;5.558;2024-02-21T02:16:27;2.58;;;0.90;;
67146;SDS011;70072;52.036;5.558;2024-02-21T02:18:55;2.78;;;1.00;;
67146;SDS011;70072;52.036;5.558;2024-02-21T02:21:31;2.13;;;0.85;;
67146;SDS011;70072;52.036;5.558;2024-02-21T02:24:12;1.85;;;0.90;;
67146;SDS011;70072;52.036;5.558;2024-02-21T02:26:42;2.45;;;1.20;;
67146;SDS011;70072;52.036;5.558;2024-02-21T02:29:10;4.38;;;1.40;;
67146;SDS011;70072;52.036;5.558;2024-02-21T02:31:36;1.73;;;0.75;;
67146;SDS011;70072;52.036;5.558;2024-02-21T02:34:03;3.83;;;0.88;;
67146;SDS011;70072;52.036;5.558;2024-02-21T02:36:31;3.03;;;1.20;;
67146;SDS011;70072;52.036;5.558;2024-02-21T02:38:58;1.67;;;0.90;;
67146;SDS011;70072;52.036;5.558;2024-02-21T02:41:23;2.28;;;0.85;;
67146;SDS011;70072;52.036;5.558;2024-02-21T02:43:49;2.53;;;0.80;;
67146;SDS011;70072;52.036;5.558;2024-02-21T02:46:15;2.50;;;0.90;;
67146;SDS011;70072;52.036;5.558;2024-02-21T02:48:41;3.63;;;1.27;;
67146;SDS011;70072;52.036;5.558;2024-02-21T03:15:18;2.25;;;0.90;;
67146;SDS011;70072;52.036;5.558;2024-02-21T03:17:48;3.20;;;0.88;;
67146;SDS011;70072;52.036;5.558;2024-02-21T03:20:14;4.90;;;0.98;;
67146;SDS011;70072;52.036;5.558;2024-02-21T03:22:40;1.23;;;0.73;;
67146;SDS011;70072;52.036;5.558;2024-02-21T03:25:06;2.00;;;0.70;;
67146;SDS011;70072;52.036;5.558;2024-02-21T03:27:35;3.25;;;1.20;;
67146;SDS011;70072;52.036;5.558;2024-02-21T03:30:01;2.38;;;0.73;;
67146;SDS011;70072;52.036;5.558;2024-02-21T03:32:30;3.20;;;0.77;;
67146;SDS011;70072;52.036;5.558;2024-02-21T03:34:56;5.00;;;1.02;;
67146;SDS011;70072;52.036;5.558;2024-02-21T03:37:24;2.65;;;0.80;;
67146;SDS011;70072;52.036;5.558;2024-02-21T03:39:52;1.15;;;0.90;;
67146;SDS011;70072;52.036;5.558;2024-02-21T03:42:17;4.38;;;0.90;;
67146;SDS011;70072;52.036;5.558;2024-02-21T03:44:43;1.77;;;0.82;;
67146;SDS011;70072;52.036;5.558;2024-02-21T03:47:08;4.30;;;1.00;;
67146;SDS011;70072;52.036;5.558;2024-02-21T03:49:36;3.53;;;0.95;;
67146;SDS011;70072;52.036;5.558;2024-02-21T03:52:02;2.33;;;0.80;;
67146;SDS011;70072;52.036;5.558;2024-02-21T03:54:28;4.80;;;1.00;;
67146;SDS011;70072;52.036;5.558;2024-02-21T03:56:53;2.22;;;1.02;;
67146;SDS011;70072;52.036;5.558;2024-02-21T03:59:22;2.78;;;0.90;;
67146;SDS011;70072;52.036;5.558;2024-02-21T04:01:51;3.00;;;0.90;;
67146;SDS011;70072;52.036;5.558;2024-02-21T04:06:59;1.80;;;0.80;;
67146;SDS011;70072;52.036;5.558;2024-02-21T04:09:39;2.33;;;0.98;;
67146;SDS011;70072;52.036;5.558;2024-02-21T04:12:07;3.17;;;1.08;;
67146;SDS011;70072;52.036;5.558;2024-02-21T04:14:33;1.58;;;0.82;;
67146;SDS011;70072;52.036;5.558;2024-02-21T04:17:01;2.10;;;0.80;;
67146;SDS011;70072;52.036;5.558;2024-02-21T04:19:28;3.20;;;0.95;;
67146;SDS011;70072;52.036;5.558;2024-02-21T04:21:56;1.05;;;0.60;;
67146;SDS011;70072;52.036;5.558;2024-02-21T04:24:25;2.08;;;0.75;;
67146;SDS011;70072;52.036;5.558;2024-02-21T06:15:54;5.63;;;1.23;;
67146;SDS011;70072;52.036;5.558;2024-02-21T06:18:20;3.20;;;1.05;;
67146;SDS011;70072;52.036;5.558;2024-02-21T06:20:46;2.15;;;1.23;;
67146;SDS011;70072;52.036;5.558;2024-02-21T06:23:15;2.15;;;1.02;;
67146;SDS011;70072;52.036;5.558;2024-02-21T06:25:44;3.22;;;1.20;;
67146;SDS011;70072;52.036;5.558;2024-02-21T06:28:09;2.80;;;1.33;;
67146;SDS011;70072;52.036;5.558;2024-02-21T06:30:37;4.30;;;1.20;;
67146;SDS011;70072;52.036;5.558;2024-02-21T06:33:04;2.35;;;1.30;;
67146;SDS011;70072;52.036;5.558;2024-02-21T06:35:33;6.05;;;1.35;;
67146;SDS011;70072;52.036;5.558;2024-02-21T06:37:59;4.40;;;1.80;;
67146;SDS011;70072;52.036;5.558;2024-02-21T06:40:24;3.47;;;1.20;;
67146;SDS011;70072;52.036;5.558;2024-02-21T06:42:50;2.55;;;1.30;;
67146;SDS011;70072;52.036;5.558;2024-02-21T06:45:16;1.95;;;1.10;;
67146;SDS011;70072;52.036;5.558;2024-02-21T06:47:42;6.22;;;1.60;;
67146;SDS011;70072;52.036;5.558;2024-02-21T06:50:08;4.88;;;1.52;;
67146;SDS011;70072;52.036;5.558;2024-02-21T06:52:34;5.57;;;1.35;;
67146;SDS011;70072;52.036;5.558;2024-02-21T06:55:02;4.07;;;1.35;;
67146;SDS011;70072;52.036;5.558;2024-02-21T07:39:24;1.48;;;1.00;;
67146;SDS011;70072;52.036;5.558;2024-02-21T07:41:50;4.68;;;1.40;;
67146;SDS011;70072;52.036;5.558;2024-02-21T07:44:16;2.85;;;1.20;;
67146;SDS011;70072;52.036;5.558;2024-02-21T07:46:43;1.48;;;1.20;;
67146;SDS011;70072;52.036;5.558;2024-02-21T07:49:14;4.30;;;1.75;;
67146;SDS011;70072;52.036;5.558;2024-02-21T07:51:53;2.72;;;1.50;;
67146;SDS011;70072;52.036;5.558;2024-02-21T07:54:18;2.75;;;1.40;;
67146;SDS011;70072;52.036;5.558;2024-02-21T15:56:13;1.95;;;0.77;;
67146;SDS011;70072;52.036;5.558;2024-02-21T15:58:39;6.82;;;0.80;;
67146;SDS011;70072;52.036;5.558;2024-02-21T16:01:05;1.05;;;0.70;;
67146;SDS011;70072;52.036;5.558;2024-02-21T16:03:31;1.70;;;0.70;;
67146;SDS011;70072;52.036;5.558;2024-02-21T16:05:57;3.22;;;0.98;;
67146;SDS011;70072;52.036;5.558;2024-02-21T16:08:25;9.07;;;0.88;;
67146;SDS011;70072;52.036;5.558;2024-02-21T16:10:51;1.85;;;0.90;;
67146;SDS011;70072;52.036;5.558;2024-02-21T16:13:19;4.40;;;0.95;;
67146;SDS011;70072;52.036;5.558;2024-02-21T16:15:49;1.67;;;0.60;;
67146;SDS011;70072;52.036;5.558;2024-02-21T16:18:15;1.17;;;0.60;;
67146;SDS011;70072;52.036;5.558;2024-02-21T16:20:45;0.90;;;0.70;;
67146;SDS011;70072;52.036;5.558;2024-02-21T16:23:15;3.85;;;0.75;;
67146;SDS011;70072;52.036;5.558;2024-02-21T16:25:41;1.85;;;0.90;;
67146;SDS011;70072;52.036;5.558;2024-02-21T16:28:10;2.60;;;0.65;;
67146;SDS011;70072;52.036;5.558;2024-02-21T16:30:36;1.10;;;0.70;;
67146;SDS011;70072;52.036;5.558;2024-02-21T16:33:04;1.75;;;0.60;;
67146;SDS011;70072;52.036;5.558;2024-02-21T16:35:29;0.77;;;0.73;;
67146;SDS011;70072;52.036;5.558;2024-02-21T16:38:13;1.40;;;0.68;;
67146;SDS011;70072;52.036;5.558;2024-02-21T16:40:45;1.40;;;0.60;;
67146;SDS011;70072;52.036;5.558;2024-02-21T16:43:15;2.45;;;1.00;;
67146;SDS011;70072;52.036;5.558;2024-02-21T16:45:40;2.50;;;0.80;;
67146;SDS011;70072;52.036;5.558;2024-02-21T16:48:06;2.30;;;0.70;;
67146;SDS011;70072;52.036;5.558;2024-02-21T16:50:32;1.83;;;0.90;;
67146;SDS011;70072;52.036;5.558;2024-02-21T16:53:00;1.27;;;0.60;;
67146;SDS011;70072;52.036;5.558;2024-02-21T16:55:28;2.97;;;0.70;;
67146;SDS011;70072;52.036;5.558;2024-02-21T16:57:58;1.13;;;0.65;;
67146;SDS011;70072;52.036;5.558;2024-02-21T17:00:29;4.03;;;0.82;;
67146;SDS011;70072;52.036;5.558;2024-02-21T17:02:55;1.70;;;0.63;;
67146;SDS011;70072;52.036;5.558;2024-02-21T17:05:23;3.53;;;0.90;;
67146;SDS011;70072;52.036;5.558;2024-02-21T17:07:51;3.65;;;0.70;;
67146;SDS011;70072;52.036;5.558;2024-02-21T17:10:17;0.82;;;0.70;;
67146;SDS011;70072;52.036;5.558;2024-02-21T17:12:45;1.33;;;0.57;;
67146;SDS011;70072;52.036;5.558;2024-02-21T17:15:10;2.35;;;0.68;;
67146;SDS011;70072;52.036;5.558;2024-02-21T17:17:36;3.42;;;0.90;;
67146;SDS011;70072;52.036;5.558;2024-02-21T17:20:04;5.10;;;1.13;;
67146;SDS011;70072;52.036;5.558;2024-02-21T17:22:31;1.98;;;0.90;;
67146;SDS011;70072;52.036;5.558;2024-02-21T17:24:56;1.75;;;0.80;;
67146;SDS011;70072;52.036;5.558;2024-02-21T17:27:22;1.60;;;0.65;;
67146;SDS011;70072;52.036;5.558;2024-02-21T17:29:48;1.80;;;0.90;;
67146;SDS011;70072;52.036;5.558;2024-02-21T17:32:16;5.88;;;1.85;;
67146;SDS011;70072;52.036;5.558;2024-02-21T17:34:42;7.22;;;1.83;;
67146;SDS011;70072;52.036;5.558;2024-02-21T17:37:09;8.90;;;2.15;;
67146;SDS011;70072;52.036;5.558;2024-02-21T17:39:35;8.07;;;1.90;;
67146;SDS011;70072;52.036;5.558;2024-02-21T17:42:00;7.25;;;1.67;;
67146;SDS011;70072;52.036;5.558;2024-02-21T17:44:28;7.45;;;1.88;;
67146;SDS011;70072;52.036;5.558;2024-02-21T17:46:56;8.73;;;2.00;;
67146;SDS011;70072;52.036;5.558;2024-02-21T17:49:24;7.25;;;1.60;;
67146;SDS011;70072;52.036;5.558;2024-02-21T17:51:52;10.45;;;2.42;;
67146;SDS011;70072;52.036;5.558;2024-02-21T17:54:17;4.82;;;2.15;;
67146;SDS011;70072;52.036;5.558;2024-02-21T17:56:45;6.82;;;1.75;;
67146;SDS011;70072;52.036;5.558;2024-02-21T17:59:13;5.13;;;1.65;;
67146;SDS011;70072;52.036;5.558;2024-02-21T18:01:39;9.30;;;1.50;;
67146;SDS011;70072;52.036;5.558;2024-02-21T18:04:04;6.43;;;1.55;;
67146;SDS011;70072;52.036;5.558;2024-02-21T18:06:31;5.35;;;1.75;;
67146;SDS011;70072;52.036;5.558;2024-02-21T18:08:58;3.75;;;1.58;;
67146;SDS011;70072;52.036;5.558;2024-02-21T18:11:26;3.22;;;1.40;;
67146;SDS011;70072;52.036;5.558;2024-02-21T18:13:54;7.82;;;1.42;;
67146;SDS011;70072;52.036;5.558;2024-02-21T18:16:22;2.83;;;1.13;;
67146;SDS011;70072;52.036;5.558;2024-02-21T18:18:52;5.32;;;1.63;;
67146;SDS011;70072;52.036;5.558;2024-02-21T18:21:20;4.03;;;1.20;;
67146;SDS011;70072;52.036;5.558;2024-02-21T18:23:46;2.63;;;1.25;;
67146;SDS011;70072;52.036;5.558;2024-02-21T18:26:12;8.23;;;1.77;;
67146;SDS011;70072;52.036;5.558;2024-02-21T18:28:37;5.32;;;1.40;;
67146;SDS011;70072;52.036;5.558;2024-02-21T18:31:08;5.65;;;1.40;;
67146;SDS011;70072;52.036;5.558;2024-02-21T18:33:33;4.63;;;1.35;;
67146;SDS011;70072;52.036;5.558;2024-02-21T18:35:59;3.92;;;1.40;;
67146;SDS011;70072;52.036;5.558;2024-02-21T18:38:25;4.63;;;1.38;;
67146;SDS011;70072;52.036;5.558;2024-02-21T18:40:50;5.45;;;1.35;;
67146;SDS011;70072;52.036;5.558;2024-02-21T18:43:18;4.65;;;1.40;;
67146;SDS011;70072;52.036;5.558;2024-02-21T18:45:44;3.85;;;1.30;;
67146;SDS011;70072;52.036;5.558;2024-02-21T18:48:10;3.72;;;1.40;;
67146;SDS011;70072;52.036;5.558;2024-02-21T18:50:42;2.90;;;1.13;;
67146;SDS011;70072;52.036;5.558;2024-02-21T18:53:08;6.20;;;1.20;;
67146;SDS011;70072;52.036;5.558;2024-02-21T18:55:36;3.47;;;1.13;;
67146;SDS011;70072;52.036;5.558;2024-02-21T18:58:01;4.60;;;1.10;;
67146;SDS011;70072;52.036;5.558;2024-02-21T19:00:29;2.08;;;1.02;;
67146;SDS011;70072;52.036;5.558;2024-02-21T19:02:57;2.42;;;0.82;;
67146;SDS011;70072;52.036;5.558;2024-02-21T19:05:25;3.05;;;1.23;;
67146;SDS011;70072;52.036;5.558;2024-02-21T19:07:51;4.55;;;1.02;;
67146;SDS011;70072;52.036;5.558;2024-02-21T19:10:16;3.42;;;1.00;;
67146;SDS011;70072;52.036;5.558;2024-02-21T19:12:47;4.15;;;1.10;;
67146;SDS011;70072;52.036;5.558;2024-02-21T19:15:12;4.03;;;1.20;;
67146;SDS011;70072;52.036;5.558;2024-02-21T19:17:40;3.13;;;1.10;;
67146;SDS011;70072;52.036;5.558;2024-02-21T19:20:06;2.10;;;0.90;;
67146;SDS011;70072;52.036;5.558;2024-02-21T19:22:36;3.42;;;1.00;;
67146;SDS011;70072;52.036;5.558;2024-02-21T19:25:04;8.23;;;1.15;;
67146;SDS011;70072;52.036;5.558;2024-02-21T19:27:40;1.90;;;1.10;;
67146;SDS011;70072;52.036;5.558;2024-02-21T19:30:06;3.97;;;1.00;;
67146;SDS011;70072;52.036;5.558;2024-02-21T19:32:39;2.88;;;0.85;;
67146;SDS011;70072;52.036;5.558;2024-02-21T19:35:06;3.03;;;1.13;;
67146;SDS011;70072;52.036;5.558;2024-02-21T19:37:38;2.60;;;0.98;;
67146;SDS011;70072;52.036;5.558;2024-02-21T19:40:09;2.75;;;0.82;;
67146;SDS011;70072;52.036;5.558;2024-02-21T19:42:35;2.90;;;0.85;;
67146;SDS011;70072;52.036;5.558;2024-02-21T19:45:01;3.28;;;1.05;;
67146;SDS011;70072;52.036;5.558;2024-02-21T19:47:29;3.00;;;1.00;;
67146;SDS011;70072;52.036;5.558;2024-02-21T19:49:55;3.63;;;0.70;;
67146;SDS011;70072;52.036;5.558;2024-02-21T19:52:25;2.50;;;1.08;;
67146;SDS011;70072;52.036;5.558;2024-02-21T19:54:50;0.88;;;0.80;;
67146;SDS011;70072;52.036;5.558;2024-02-21T19:57:17;4.28;;;1.23;;
67146;SDS011;70072;52.036;5.558;2024-02-21T19:59:47;2.40;;;1.00;;
67146;SDS011;70072;52.036;5.558;2024-02-21T20:02:13;2.60;;;0.82;;
67146;SDS011;70072;52.036;5.558;2024-02-21T20:04:41;2.50;;;0.70;;
67146;SDS011;70072;52.036;5.558;2024-02-21T20:07:07;1.45;;;0.70;;
67146;SDS011;70072;52.036;5.558;2024-02-21T20:09:35;1.73;;;0.90;;
67146;SDS011;70072;52.036;5.558;2024-02-21T20:12:07;1.88;;;1.20;;
67146;SDS011;70072;52.036;5.558;2024-02-21T20:14:33;1.67;;;0.70;;
67146;SDS011;70072;52.036;5.558;2024-02-21T20:16:59;2.50;;;0.70;;
67146;SDS011;70072;52.036;5.558;2024-02-21T20:19:26;2.17;;;1.00;;
67146;SDS011;70072;52.036;5.558;2024-02-21T20:21:52;2.47;;;1.08;;
67146;SDS011;70072;52.036;5.558;2024-02-21T20:24:18;2.05;;;0.80;;
67146;SDS011;70072;52.036;5.558;2024-02-21T20:26:44;2.30;;;1.00;;
67146;SDS011;70072;52.036;5.558;2024-02-21T20:29:14;1.33;;;0.60;;
67146;SDS011;70072;52.036;5.558;2024-02-21T20:31:42;1.85;;;0.95;;
67146;SDS011;70072;52.036;5.558;2024-02-21T20:34:10;3.53;;;0.90;;
67146;SDS011;70072;52.036;5.558;2024-02-21T20:36:42;1.30;;;0.60;;
67146;SDS011;70072;52.036;5.558;2024-02-21T20:39:09;1.60;;;0.73;;
67146;SDS011;70072;52.036;5.558;2024-02-21T20:41:35;1.50;;;0.80;;
67146;SDS011;70072;52.036;5.558;2024-02-21T20:44:02;1.98;;;0.90;;
67146;SDS011;70072;52.036;5.558;2024-02-21T20:46:31;2.83;;;0.80;;
67146;SDS011;70072;52.036;5.558;2024-02-21T20:49:00;9.23;;;1.10;;
67146;SDS011;70072;52.036;5.558;2024-02-21T20:51:25;2.97;;;1.00;;
67146;SDS011;70072;52.036;5.558;2024-02-21T20:53:51;2.63;;;0.95;;
67146;SDS011;70072;52.036;5.558;2024-02-21T20:56:16;2.85;;;1.00;;
67146;SDS011;70072;52.036;5.558;2024-02-21T20:58:45;3.65;;;1.00;;
67146;SDS011;70072;52.036;5.558;2024-02-21T21:01:13;5.15;;;1.08;;
67146;SDS011;70072;52.036;5.558;2024-02-21T21:03:41;2.63;;;1.05;;
67146;SDS011;70072;52.036;5.558;2024-02-21T21:06:07;4.22;;;0.90;;
67146;SDS011;70072;52.036;5.558;2024-02-21T21:08:33;1.80;;;0.80;;
67146;SDS011;70072;52.036;5.558;2024-02-21T21:10:58;6.00;;;1.00;;
67146;SDS011;70072;52.036;5.558;2024-02-21T21:13:29;3.35;;;0.90;;
67146;SDS011;70072;52.036;5.558;2024-02-21T21:15:59;5.43;;;1.10;;
67146;SDS011;70072;52.036;5.558;2024-02-21T21:18:30;3.33;;;1.10;;
67146;SDS011;70072;52.036;5.558;2024-02-21T21:20:59;4.97;;;0.80;;
67146;SDS011;70072;52.036;5.558;2024-02-21T21:23:25;2.28;;;0.77;;
67146;SDS011;70072;52.036;5.558;2024-02-21T21:25:54;2.42;;;0.93;;
67146;SDS011;70072;52.036;5.558;2024-02-21T21:28:22;3.97;;;1.02;;
67146;SDS011;70072;52.036;5.558;2024-02-21T21:30:49;7.95;;;1.00;;
67146;SDS011;70072;52.036;5.558;2024-02-21T21:33:15;3.92;;;0.90;;
67146;SDS011;70072;52.036;5.558;2024-02-21T21:35:40;4.43;;;1.10;;
67146;SDS011;70072;52.036;5.558;2024-02-21T21:38:12;2.60;;;1.00;;
67146;SDS011;70072;52.036;5.558;2024-02-21T21:40:38;2.05;;;0.70;;
67146;SDS011;70072;52.036;5.558;2024-02-21T21:43:10;2.90;;;0.93;;
67146;SDS011;70072;52.036;5.558;2024-02-21T21:45:38;4.90;;;0.80;;
67146;SDS011;70072;52.036;5.558;2024-02-21T21:48:04;5.30;;;0.73;;
67146;SDS011;70072;52.036;5.558;2024-02-21T21:50:30;2.53;;;0.90;;
67146;SDS011;70072;52.036;5.558;2024-02-21T21:52:56;4.28;;;0.90;;
67146;SDS011;70072;52.036;5.558;2024-02-21T21:55:24;3.58;;;0.77;;
67146;SDS011;70072;52.036;5.558;2024-02-21T21:57:55;2.25;;;1.00;;
67146;SDS011;70072;52.036;5.558;2024-02-21T22:00:23;3.08;;;1.10;;
67146;SDS011;70072;52.036;5.558;2024-02-21T22:02:49;2.28;;;0.77;;
67146;SDS011;70072;52.036;5.558;2024-02-21T22:05:17;1.30;;;0.80;;
67146;SDS011;70072;52.036;5.558;2024-02-21T22:07:43;2.30;;;0.70;;
67146;SDS011;70072;52.036;5.558;2024-02-21T22:10:09;3.90;;;0.80;;
67146;SDS011;70072;52.036;5.558;2024-02-21T22:12:38;3.17;;;0.90;;
67146;SDS011;70072;52.036;5.558;2024-02-21T22:15:07;1.83;;;0.80;;
67146;SDS011;70072;52.036;5.558;2024-02-21T22:17:33;3.67;;;0.90;;
67146;SDS011;70072;52.036;5.558;2024-02-21T22:20:01;1.58;;;0.73;;
67146;SDS011;70072;52.036;5.558;2024-02-21T22:22:27;2.90;;;0.90;;
67146;SDS011;70072;52.036;5.558;2024-02-21T22:24:55;2.08;;;0.80;;
67146;SDS011;70072;52.036;5.558;2024-02-21T22:27:23;1.13;;;0.60;;
67146;SDS011;70072;52.036;5.558;2024-02-21T22:29:49;4.90;;;0.88;;
67146;SDS011;70072;52.036;5.558;2024-02-21T22:32:20;1.35;;;0.75;;
67146;SDS011;70072;52.036;5.558;2024-02-21T22:34:46;1.77;;;0.68;;
67146;SDS011;70072;52.036;5.558;2024-02-21T22:37:11;1.90;;;0.88;;
67146;SDS011;70072;52.036;5.558;2024-02-21T22:39:42;3.42;;;0.70;;
67146;SDS011;70072;52.036;5.558;2024-02-21T22:42:07;3.70;;;0.80;;
67146;SDS011;70072;52.036;5.558;2024-02-21T22:44:33;2.50;;;0.63;;
67146;SDS011;70072;52.036;5.558;2024-02-21T22:47:04;3.72;;;0.70;;
67146;SDS011;70072;52.036;5.558;2024-02-21T22:49:32;0.73;;;0.43;;
67146;SDS011;70072;52.036;5.558;2024-02-21T22:51:58;1.33;;;0.68;;
67146;SDS011;70072;52.036;5.558;2024-02-21T22:54:26;2.70;;;0.68;;
67146;SDS011;70072;52.036;5.558;2024-02-21T22:56:52;1.58;;;0.60;;
67146;SDS011;70072;52.036;5.558;2024-02-21T22:59:17;2.20;;;0.70;;
67146;SDS011;70072;52.036;5.558;2024-02-21T23:01:43;1.25;;;0.70;;
67146;SDS011;70072;52.036;5.558;2024-02-21T23:04:08;0.68;;;0.50;;
67146;SDS011;70072;52.036;5.558;2024-02-21T23:06:37;1.27;;;0.60;;
67146;SDS011;70072;52.036;5.558;2024-02-21T23:09:03;4.57;;;0.65;;
67146;SDS011;70072;52.036;5.558;2024-02-21T23:11:33;0.95;;;0.60;;
67146;SDS011;70072;52.036;5.558;2024-02-21T23:13:59;0.65;;;0.52;;
67146;SDS011;70072;52.036;5.558;2024-02-21T23:16:29;3.45;;;0.68;;
67146;SDS011;70072;52.036;5.558;2024-02-21T23:18:57;1.73;;;0.70;;
67146;SDS011;70072;52.036;5.558;2024-02-21T23:21:23;0.45;;;0.43;;
67146;SDS011;70072;52.036;5.558;2024-02-21T23:23:53;1.85;;;0.60;;
67146;SDS011;70072;52.036;5.558;2024-02-21T23:26:28;1.45;;;0.60;;
67146;SDS011;70072;52.036;5.558;2024-02-21T23:29:05;0.88;;;0.50;;
